Time;durP1;ratioP1;P1;durP2;ratioP2;P2;SDS_P1;SDS_P2;PMS_P1;PMS_P2;Temp;Humidity;BMP_temperature;BMP_pressure;BME280_temperature;BME280_humidity;BME280_pressure;Samples;Min_cycle;Max_cycle;Signal;HPM_P1;HPM_P2
2023/05/10 00:00:22;;;;;;;2.15;0.75;;;;;;;;;;7419227;19;20006;-77
2023/05/10 00:02:47;;;;;;;2.38;0.90;;;;;;;;;;7374221;19;20048;-78
2023/05/10 00:05:13;;;;;;;0.50;0.50;;;;;;;;;;7387799;19;20521;-78
2023/05/10 00:07:38;;;;;;;1.33;0.85;;;;;;;;;;7376934;19;20370;-77
2023/05/10 00:10:04;;;;;;;2.35;0.70;;;;;;;;;;7381480;19;20021;-77
2023/05/10 00:12:29;;;;;;;0.98;0.57;;;;;;;;;;7402097;19;20046;-78
2023/05/10 00:14:55;;;;;;;0.60;0.60;;;;;;;;;;7371913;19;20030;-78
2023/05/10 00:17:20;;;;;;;0.70;0.70;;;;;;;;;;7369392;19;20011;-77
2023/05/10 00:19:45;;;;;;;2.63;0.85;;;;;;;;;;7371469;19;20031;-77
2023/05/10 00:22:11;;;;;;;1.27;0.80;;;;;;;;;;7370528;19;20014;-77
2023/05/10 00:24:36;;;;;;;0.70;0.70;;;;;;;;;;7392949;19;20018;-77
2023/05/10 00:27:03;;;;;;;1.05;0.80;;;;;;;;;;7368945;19;20023;-76
2023/05/10 00:29:29;;;;;;;0.90;0.90;;;;;;;;;;7369562;19;20010;-76
2023/05/10 00:31:54;;;;;;;0.90;0.85;;;;;;;;;;7368980;19;20011;-76
2023/05/10 00:34:20;;;;;;;0.73;0.73;;;;;;;;;;7368581;19;20007;-77
2023/05/10 00:36:45;;;;;;;3.17;1.02;;;;;;;;;;7377896;19;20452;-77
2023/05/10 00:39:10;;;;;;;0.85;0.85;;;;;;;;;;7395339;19;20013;-77
2023/05/10 00:41:36;;;;;;;1.02;0.70;;;;;;;;;;7370130;19;20077;-77
2023/05/10 00:44:01;;;;;;;0.90;0.90;;;;;;;;;;7370327;19;20014;-77
2023/05/10 00:46:27;;;;;;;0.80;0.80;;;;;;;;;;7371519;19;20417;-78
2023/05/10 00:48:53;;;;;;;1.13;0.95;;;;;;;;;;7371630;19;20463;-78
2023/05/10 00:51:19;;;;;;;1.02;1.00;;;;;;;;;;7405474;19;20002;-77
2023/05/10 00:53:49;;;;;;;1.38;1.10;;;;;;;;;;7388299;19;20063;-78
2023/05/10 00:56:15;;;;;;;1.00;0.90;;;;;;;;;;7386809;19;20013;-77
2023/05/10 00:58:41;;;;;;;2.92;1.20;;;;;;;;;;7370542;19;20010;-77
2023/05/10 01:01:07;;;;;;;1.92;0.80;;;;;;;;;;7369504;19;20414;-77
2023/05/10 01:03:32;;;;;;;1.17;1.10;;;;;;;;;;7391626;19;19998;-78
2023/05/10 01:05:58;;;;;;;1.10;1.10;;;;;;;;;;7370261;19;20021;-77
2023/05/10 01:08:24;;;;;;;2.55;1.00;;;;;;;;;;7373744;19;20017;-77
2023/05/10 01:10:49;;;;;;;2.00;0.90;;;;;;;;;;7370876;19;20399;-77
2023/05/10 01:13:26;;;;;;;5.70;1.10;;;;;;;;;;7371096;19;20006;-77
2023/05/10 01:15:51;;;;;;;1.95;1.33;;;;;;;;;;7370306;19;20346;-77
2023/05/10 01:18:19;;;;;;;1.35;1.20;;;;;;;;;;7389479;19;20002;-77
2023/05/10 01:20:48;;;;;;;3.20;0.88;;;;;;;;;;7369532;19;20006;-79
2023/05/10 01:23:29;;;;;;;1.70;1.05;;;;;;;;;;7369689;19;20043;-77
2023/05/10 01:26:02;;;;;;;1.10;1.10;;;;;;;;;;7371411;19;20013;-77
2023/05/10 01:28:39;;;;;;;2.97;1.20;;;;;;;;;;7373850;19;20017;-78
2023/05/10 01:31:59;;;;;;;2.65;1.10;;;;;;;;;;7372571;19;20113;-78
2023/05/10 01:34:30;;;;;;;0.90;0.90;;;;;;;;;;7368593;19;20434;-78
2023/05/10 01:37:07;;;;;;;0.88;0.88;;;;;;;;;;7368144;19;20421;-77
2023/05/10 01:39:38;;;;;;;1.67;1.10;;;;;;;;;;7391383;19;19998;-77
2023/05/10 01:42:10;;;;;;;1.20;1.08;;;;;;;;;;7376106;19;20014;-77
2023/05/10 01:44:42;;;;;;;3.15;1.10;;;;;;;;;;7375629;19;20015;-77
2023/05/10 01:47:12;;;;;;;1.65;1.00;;;;;;;;;;7373448;19;20010;-76
2023/05/10 01:49:56;;;;;;;1.60;0.85;;;;;;;;;;7374839;19;20017;-77
2023/05/10 01:52:32;;;;;;;1.27;1.05;;;;;;;;;;7374094;19;20013;-77
2023/05/10 01:55:05;;;;;;;4.38;1.25;;;;;;;;;;7374777;19;20015;-77
2023/05/10 01:57:35;;;;;;;1.38;1.10;;;;;;;;;;7394790;19;20758;-77
2023/05/10 02:00:03;;;;;;;2.60;1.30;;;;;;;;;;7375727;19;20026;-77
2023/05/10 02:02:32;;;;;;;0.90;0.90;;;;;;;;;;7375237;19;20070;-78
2023/05/10 02:04:59;;;;;;;1.30;1.20;;;;;;;;;;7377804;19;20010;-77
2023/05/10 02:07:26;;;;;;;2.78;1.10;;;;;;;;;;7378867;19;20018;-77
2023/05/10 02:09:51;;;;;;;2.85;1.30;;;;;;;;;;7375794;19;20360;-77
2023/05/10 02:12:18;;;;;;;3.75;1.15;;;;;;;;;;7397201;19;20016;-76
2023/05/10 02:14:45;;;;;;;3.40;1.20;;;;;;;;;;7377659;19;20027;-77
2023/05/10 02:17:11;;;;;;;1.05;0.90;;;;;;;;;;7377184;19;20006;-77
2023/05/10 02:19:38;;;;;;;3.08;1.05;;;;;;;;;;7378886;19;20085;-76
2023/05/10 02:22:05;;;;;;;1.17;1.10;;;;;;;;;;7391910;19;20006;-77
2023/05/10 02:24:33;;;;;;;1.83;1.10;;;;;;;;;;7414113;19;20023;-77
2023/05/10 02:27:00;;;;;;;1.05;1.05;;;;;;;;;;7388714;19;20050;-77
2023/05/10 02:29:26;;;;;;;1.13;1.02;;;;;;;;;;7392415;19;20022;-77
2023/05/10 02:31:54;;;;;;;1.42;1.13;;;;;;;;;;7396271;19;20015;-77
2023/05/10 02:34:21;;;;;;;0.90;0.90;;;;;;;;;;7393709;19;20026;-78
2023/05/10 02:36:48;;;;;;;1.30;1.20;;;;;;;;;;7411042;19;20049;-77
2023/05/10 02:39:15;;;;;;;1.70;1.20;;;;;;;;;;7433046;19;19999;-77
2023/05/10 02:41:41;;;;;;;0.95;0.95;;;;;;;;;;7389194;19;20083;-77
2023/05/10 02:44:09;;;;;;;1.83;1.02;;;;;;;;;;7387844;19;20007;-77
2023/05/10 02:46:36;;;;;;;10.75;1.30;;;;;;;;;;7385891;19;20014;-77
2023/05/10 02:49:02;;;;;;;1.15;0.75;;;;;;;;;;7385064;19;20028;-77
2023/05/10 02:51:33;;;;;;;1.05;0.95;;;;;;;;;;7406258;19;20006;-77
2023/05/10 02:54:06;;;;;;;1.05;1.00;;;;;;;;;;7382734;19;20046;-77
2023/05/10 02:56:35;;;;;;;2.95;1.27;;;;;;;;;;7382533;19;20015;-77
2023/05/10 02:59:01;;;;;;;1.95;1.10;;;;;;;;;;7383408;19;20015;-77
2023/05/10 03:01:26;;;;;;;1.35;1.15;;;;;;;;;;7385174;19;20033;-77
2023/05/10 03:03:52;;;;;;;1.90;1.33;;;;;;;;;;7384290;19;19999;-77
2023/05/10 03:06:17;;;;;;;1.75;1.15;;;;;;;;;;7404597;19;20649;-77
2023/05/10 03:08:44;;;;;;;3.10;1.17;;;;;;;;;;7382453;19;20015;-77
2023/05/10 03:11:12;;;;;;;1.80;1.27;;;;;;;;;;7383775;19;20026;-77
2023/05/10 03:13:48;;;;;;;1.65;1.20;;;;;;;;;;7381329;19;20027;-77
2023/05/10 03:16:27;;;;;;;1.63;1.20;;;;;;;;;;7388749;19;20042;-77
2023/05/10 03:19:06;;;;;;;3.90;1.50;;;;;;;;;;7382835;19;19991;-77
2023/05/10 03:21:32;;;;;;;1.02;1.00;;;;;;;;;;7405101;19;20013;-77
2023/05/10 03:24:08;;;;;;;2.10;1.23;;;;;;;;;;7381765;19;20014;-77
2023/05/10 03:26:34;;;;;;;1.30;1.10;;;;;;;;;;7380799;19;20006;-77
2023/05/10 03:29:00;;;;;;;1.25;1.15;;;;;;;;;;7381958;19;20014;-77
2023/05/10 03:31:26;;;;;;;4.70;1.52;;;;;;;;;;7384449;19;20002;-77
2023/05/10 03:33:52;;;;;;;3.90;1.45;;;;;;;;;;7377992;19;20003;-77
2023/05/10 03:36:18;;;;;;;2.28;1.60;;;;;;;;;;7399779;19;20129;-77
2023/05/10 03:38:44;;;;;;;3.53;1.50;;;;;;;;;;7376761;19;20021;-77
2023/05/10 03:41:09;;;;;;;1.33;1.23;;;;;;;;;;7372314;19;20003;-77
2023/05/10 03:43:35;;;;;;;4.05;1.75;;;;;;;;;;7371866;19;20468;-77
2023/05/10 03:46:04;;;;;;;1.92;1.60;;;;;;;;;;7371521;19;20006;-77
2023/05/10 03:48:30;;;;;;;2.28;1.75;;;;;;;;;;7395636;19;20490;-76
2023/05/10 03:50:55;;;;;;;6.05;1.90;;;;;;;;;;7372479;19;19998;-76
2023/05/10 03:53:20;;;;;;;2.15;1.63;;;;;;;;;;7376365;19;20352;-76
2023/05/10 03:55:46;;;;;;;2.13;1.80;;;;;;;;;;7380199;19;20524;-76
2023/05/10 03:58:11;;;;;;;3.05;1.67;;;;;;;;;;7380205;19;20482;-77
2023/05/10 04:00:37;;;;;;;3.40;1.88;;;;;;;;;;7399512;19;20031;-77
2023/05/10 04:03:02;;;;;;;3.03;1.90;;;;;;;;;;7371511;19;20028;-76
2023/05/10 04:05:28;;;;;;;1.58;1.48;;;;;;;;;;7371528;19;20006;-76
2023/05/10 04:07:53;;;;;;;2.33;1.60;;;;;;;;;;7372185;19;20006;-77
2023/05/10 04:10:18;;;;;;;5.35;2.00;;;;;;;;;;7371765;19;20002;-76
2023/05/10 04:12:44;;;;;;;3.17;1.70;;;;;;;;;;7367546;19;19998;-77
2023/05/10 04:15:09;;;;;;;4.90;1.70;;;;;;;;;;7394092;19;20006;-77
2023/05/10 04:17:35;;;;;;;1.75;1.60;;;;;;;;;;7370022;19;21012;-77
2023/05/10 04:20:00;;;;;;;2.05;1.67;;;;;;;;;;7372430;19;20010;-77
2023/05/10 04:22:26;;;;;;;4.22;1.73;;;;;;;;;;7375405;19;20421;-78
2023/05/10 04:24:51;;;;;;;3.40;2.10;;;;;;;;;;7371904;19;19998;-77
2023/05/10 04:27:16;;;;;;;3.33;1.80;;;;;;;;;;7393015;19;20036;-76
2023/05/10 04:29:42;;;;;;;3.58;1.92;;;;;;;;;;7370818;19;20036;-76
2023/05/10 04:32:09;;;;;;;4.57;1.77;;;;;;;;;;7365556;19;20010;-76
2023/05/10 04:34:35;;;;;;;3.60;1.90;;;;;;;;;;7369535;19;20002;-76
2023/05/10 04:37:01;;;;;;;2.50;1.80;;;;;;;;;;7370719;19;20000;-75
2023/05/10 04:39:26;;;;;;;3.70;1.80;;;;;;;;;;7391064;19;20109;-76
2023/05/10 04:41:51;;;;;;;3.78;2.20;;;;;;;;;;7367712;19;20071;-77
2023/05/10 04:44:17;;;;;;;2.83;1.98;;;;;;;;;;7367691;19;20011;-77
2023/05/10 04:46:42;;;;;;;3.00;2.10;;;;;;;;;;7368034;19;20563;-77
2023/05/10 04:49:07;;;;;;;3.03;2.00;;;;;;;;;;7368980;19;20003;-77
2023/05/10 04:51:33;;;;;;;3.33;1.90;;;;;;;;;;7389488;19;20009;-64
2023/05/10 04:53:58;;;;;;;4.70;2.33;;;;;;;;;;7367859;19;20066;-64
2023/05/10 04:56:23;;;;;;;3.35;2.20;;;;;;;;;;7366192;19;20471;-62
2023/05/10 04:58:49;;;;;;;3.88;2.10;;;;;;;;;;7371532;19;20014;-64
2023/05/10 05:01:14;;;;;;;6.25;2.33;;;;;;;;;;7369987;19;20019;-63
2023/05/10 05:03:40;;;;;;;7.07;2.50;;;;;;;;;;7384683;19;19999;-65
2023/05/10 05:06:05;;;;;;;3.00;1.85;;;;;;;;;;7376161;19;20113;-65
2023/05/10 05:08:31;;;;;;;3.45;2.10;;;;;;;;;;7367114;19;20010;-63
2023/05/10 05:10:56;;;;;;;5.15;2.05;;;;;;;;;;7366656;19;20014;-64
2023/05/10 05:13:21;;;;;;;5.05;2.10;;;;;;;;;;7366670;19;20014;-64
2023/05/10 05:15:47;;;;;;;5.10;2.25;;;;;;;;;;7373801;19;20032;-65
2023/05/10 05:18:12;;;;;;;3.33;2.08;;;;;;;;;;7394652;19;20398;-64
2023/05/10 05:20:37;;;;;;;4.97;2.10;;;;;;;;;;7375682;19;20410;-64
2023/05/10 05:23:03;;;;;;;3.70;2.25;;;;;;;;;;7374694;19;20034;-76
2023/05/10 05:25:28;;;;;;;4.75;2.28;;;;;;;;;;7373449;19;20018;-76
2023/05/10 05:27:53;;;;;;;6.18;2.50;;;;;;;;;;7367758;19;20002;-76
2023/05/10 05:30:19;;;;;;;6.75;2.70;;;;;;;;;;7396381;19;20003;-76
2023/05/10 05:32:44;;;;;;;5.03;2.40;;;;;;;;;;7373828;19;20036;-76
2023/05/10 05:35:10;;;;;;;3.88;2.33;;;;;;;;;;7373800;19;20007;-75
2023/05/10 05:37:37;;;;;;;5.35;2.17;;;;;;;;;;7369555;19;20003;-75
2023/05/10 05:40:02;;;;;;;4.00;2.25;;;;;;;;;;7377875;19;20015;-75
2023/05/10 05:42:28;;;;;;;4.93;2.45;;;;;;;;;;7399081;19;20005;-75
2023/05/10 05:44:53;;;;;;;5.57;2.20;;;;;;;;;;7375041;19;20074;-74
2023/05/10 05:47:18;;;;;;;7.47;2.33;;;;;;;;;;7372528;19;20010;-74
2023/05/10 05:49:45;;;;;;;7.05;2.13;;;;;;;;;;7375088;19;20006;-74
2023/05/10 05:52:11;;;;;;;4.50;2.10;;;;;;;;;;7376877;19;20015;-74
2023/05/10 05:54:36;;;;;;;5.65;2.10;;;;;;;;;;7396171;19;20089;-75
2023/05/10 05:57:02;;;;;;;4.95;2.10;;;;;;;;;;7371981;19;20006;-75
2023/05/10 05:59:27;;;;;;;4.57;2.10;;;;;;;;;;7378264;19;20580;-75
2023/05/10 06:01:53;;;;;;;3.70;2.08;;;;;;;;;;7380290;19;20017;-75
2023/05/10 06:04:19;;;;;;;3.75;1.98;;;;;;;;;;7379814;19;19998;-75
2023/05/10 06:06:44;;;;;;;7.38;2.10;;;;;;;;;;7376720;19;20019;-75
2023/05/10 06:09:10;;;;;;;4.43;2.05;;;;;;;;;;7399827;19;20003;-75
2023/05/10 06:11:36;;;;;;;6.00;2.38;;;;;;;;;;7377607;19;20014;-75
2023/05/10 06:14:04;;;;;;;6.47;2.20;;;;;;;;;;7372740;19;20006;-75
2023/05/10 06:16:29;;;;;;;6.07;2.20;;;;;;;;;;7372199;19;20449;-75
2023/05/10 06:18:55;;;;;;;7.30;2.22;;;;;;;;;;7372523;19;20002;-75
2023/05/10 06:21:20;;;;;;;4.63;2.00;;;;;;;;;;7394708;19;20006;-75
2023/05/10 06:23:46;;;;;;;4.95;2.30;;;;;;;;;;7373283;19;20027;-75
2023/05/10 06:26:12;;;;;;;6.32;2.13;;;;;;;;;;7371951;19;20006;-75
2023/05/10 06:28:40;;;;;;;6.35;2.35;;;;;;;;;;7377610;19;20397;-74
2023/05/10 06:31:06;;;;;;;5.22;1.92;;;;;;;;;;7377140;19;20325;-75
2023/05/10 06:33:32;;;;;;;2.97;1.67;;;;;;;;;;7394631;19;20002;-75
2023/05/10 06:35:57;;;;;;;4.05;1.88;;;;;;;;;;7373218;19;20006;-74
2023/05/10 06:38:23;;;;;;;4.68;1.77;;;;;;;;;;7371994;19;20007;-75
2023/05/10 06:40:48;;;;;;;3.38;1.55;;;;;;;;;;7374130;19;20026;-75
2023/05/10 06:43:14;;;;;;;4.68;1.80;;;;;;;;;;7373790;19;20010;-75
2023/05/10 06:45:39;;;;;;;7.75;2.50;;;;;;;;;;7395357;19;19999;-76
2023/05/10 06:48:04;;;;;;;6.05;2.00;;;;;;;;;;7394874;19;20017;-76
2023/05/10 06:50:30;;;;;;;4.35;1.90;;;;;;;;;;7394977;19;20368;-76
2023/05/10 06:52:55;;;;;;;4.38;1.90;;;;;;;;;;7390631;19;20014;-75
2023/05/10 06:55:21;;;;;;;3.53;1.90;;;;;;;;;;7368303;19;20397;-76
2023/05/10 06:57:47;;;;;;;6.60;2.28;;;;;;;;;;7368857;19;20010;-76
2023/05/10 07:00:13;;;;;;;5.68;2.28;;;;;;;;;;7371553;19;20378;-74
2023/05/10 07:02:39;;;;;;;6.07;2.10;;;;;;;;;;7372280;19;20015;-74
2023/05/10 07:05:04;;;;;;;3.90;1.70;;;;;;;;;;7394118;19;20006;-76
2023/05/10 07:07:30;;;;;;;3.15;1.77;;;;;;;;;;7370601;19;20003;-76
2023/05/10 07:09:57;;;;;;;2.80;1.67;;;;;;;;;;7371919;19;20010;-75
2023/05/10 07:12:22;;;;;;;4.70;1.98;;;;;;;;;;7371881;19;20011;-76
2023/05/10 07:14:48;;;;;;;4.60;1.80;;;;;;;;;;7371210;19;20058;-76
2023/05/10 07:17:13;;;;;;;5.47;1.70;;;;;;;;;;7390906;19;20012;-78
2023/05/10 07:19:38;;;;;;;4.45;1.73;;;;;;;;;;7376951;19;20018;-76
2023/05/10 07:22:04;;;;;;;3.22;1.80;;;;;;;;;;7372132;19;20022;-75
2023/05/10 07:24:30;;;;;;;4.80;1.83;;;;;;;;;;7372581;19;20094;-75
2023/05/10 07:26:56;;;;;;;2.90;1.88;;;;;;;;;;7372001;19;20540;-75
2023/05/10 07:29:21;;;;;;;5.13;2.10;;;;;;;;;;7376697;19;20014;-76
2023/05/10 07:31:46;;;;;;;5.45;1.98;;;;;;;;;;7406810;19;20683;-75
2023/05/10 07:34:12;;;;;;;4.55;2.15;;;;;;;;;;7385012;19;20023;-75
2023/05/10 07:36:37;;;;;;;7.90;2.40;;;;;;;;;;7382404;19;20014;-75
2023/05/10 07:39:03;;;;;;;4.00;2.13;;;;;;;;;;7378280;19;20020;-75
2023/05/10 07:41:28;;;;;;;4.25;2.10;;;;;;;;;;7380605;19;20023;-75
2023/05/10 07:43:53;;;;;;;4.20;1.70;;;;;;;;;;7401886;19;20366;-77
2023/05/10 07:46:19;;;;;;;3.67;1.90;;;;;;;;;;7381677;19;20010;-75
2023/05/10 07:48:45;;;;;;;5.65;2.20;;;;;;;;;;7383969;19;20006;-75
2023/05/10 07:51:10;;;;;;;9.60;5.07;;;;;;;;;;7379267;19;20014;-76
2023/05/10 07:53:35;;;;;;;5.72;2.30;;;;;;;;;;7374038;19;20013;-75
2023/05/10 07:56:29;;;;;;;6.20;1.95;;;;;;;;;;7395978;19;20022;-75
2023/05/10 07:59:06;;;;;;;3.70;1.70;;;;;;;;;;7372072;19;20007;-75
2023/05/10 08:01:33;;;;;;;3.42;1.80;;;;;;;;;;7371325;19;20405;-75
2023/05/10 08:03:58;;;;;;;6.43;1.92;;;;;;;;;;7370726;19;20334;-75
2023/05/10 08:06:26;;;;;;;4.63;1.90;;;;;;;;;;7371348;19;20002;-75
2023/05/10 08:08:53;;;;;;;6.65;2.00;;;;;;;;;;7374378;19;20010;-75
2023/05/10 08:11:20;;;;;;;3.40;1.90;;;;;;;;;;7370726;19;20002;-75
2023/05/10 08:13:46;;;;;;;4.47;2.03;;;;;;;;;;7390761;19;20031;-76
2023/05/10 08:16:11;;;;;;;5.15;2.00;;;;;;;;;;7371226;19;19998;-75
2023/05/10 08:18:38;;;;;;;5.18;1.92;;;;;;;;;;7370374;19;20064;-75
2023/05/10 08:21:03;;;;;;;6.15;1.90;;;;;;;;;;7370302;19;20041;-74
2023/05/10 08:23:29;;;;;;;5.05;2.00;;;;;;;;;;7369340;19;20703;-74
2023/05/10 08:25:54;;;;;;;5.25;1.90;;;;;;;;;;7391312;19;20005;-75
2023/05/10 08:28:19;;;;;;;3.55;1.90;;;;;;;;;;7367531;19;20368;-75
2023/05/10 08:30:45;;;;;;;4.70;1.90;;;;;;;;;;7367771;19;20082;-75
2023/05/10 08:33:10;;;;;;;5.50;2.08;;;;;;;;;;7366439;19;20078;-75
2023/05/10 08:35:35;;;;;;;5.72;2.00;;;;;;;;;;7370416;19;20010;-75
2023/05/10 08:38:01;;;;;;;6.05;2.13;;;;;;;;;;7388920;19;20363;-75
2023/05/10 08:40:26;;;;;;;12.57;2.53;;;;;;;;;;7368492;19;20043;-74
2023/05/10 08:43:02;;;;;;;5.53;2.20;;;;;;;;;;7370733;19;20110;-77
2023/05/10 08:45:32;;;;;;;4.22;1.85;;;;;;;;;;7372854;19;20390;-78
2023/05/10 08:47:59;;;;;;;4.72;1.80;;;;;;;;;;7371561;19;20010;-77
2023/05/10 08:50:25;;;;;;;3.38;1.92;;;;;;;;;;7380042;19;20016;-78
2023/05/10 08:52:55;;;;;;;6.03;2.28;;;;;;;;;;7399702;19;20073;-74
2023/05/10 08:55:20;;;;;;;4.55;1.90;;;;;;;;;;7377419;19;20412;-74
2023/05/10 08:57:46;;;;;;;2.80;1.50;;;;;;;;;;7375197;19;20014;-74
2023/05/10 09:00:13;;;;;;;6.07;2.17;;;;;;;;;;7376141;19;20346;-73
2023/05/10 09:02:39;;;;;;;2.28;1.73;;;;;;;;;;7376996;19;20031;-74
2023/05/10 09:05:05;;;;;;;4.63;1.67;;;;;;;;;;7400298;19;20592;-74
2023/05/10 09:07:31;;;;;;;6.57;2.05;;;;;;;;;;7375962;19;20011;-74
2023/05/10 09:09:57;;;;;;;6.30;1.80;;;;;;;;;;7378959;19;20006;-74
2023/05/10 09:12:23;;;;;;;3.35;1.60;;;;;;;;;;7384688;19;20070;-74
2023/05/10 09:14:51;;;;;;;2.55;1.70;;;;;;;;;;7388528;19;20027;-76
2023/05/10 09:17:16;;;;;;;4.68;1.63;;;;;;;;;;7385196;19;20341;-73
2023/05/10 09:19:42;;;;;;;5.38;1.50;;;;;;;;;;7403495;19;20096;-73
2023/05/10 09:22:08;;;;;;;3.22;1.95;;;;;;;;;;7378135;19;20014;-74
2023/05/10 09:24:33;;;;;;;6.78;2.22;;;;;;;;;;7377694;19;20011;-73
2023/05/10 09:26:58;;;;;;;7.78;2.83;;;;;;;;;;7375750;19;20031;-77
2023/05/10 09:29:24;;;;;;;2.55;1.60;;;;;;;;;;7385725;19;20006;-77
2023/05/10 09:31:54;;;;;;;3.20;1.40;;;;;;;;;;7401818;19;20007;-77
2023/05/10 09:34:31;;;;;;;3.15;1.85;;;;;;;;;;7390951;19;20036;-77
2023/05/10 09:37:04;;;;;;;2.17;1.40;;;;;;;;;;7375700;19;20010;-75
2023/05/10 09:39:38;;;;;;;4.45;1.40;;;;;;;;;;7375774;19;20031;-73
2023/05/10 09:42:08;;;;;;;1.63;1.20;;;;;;;;;;7374668;19;20037;-73
2023/05/10 09:44:35;;;;;;;1.70;1.05;;;;;;;;;;7375234;19;20046;-73
2023/05/10 09:47:01;;;;;;;2.08;1.23;;;;;;;;;;7395194;19;20007;-73
2023/05/10 09:49:26;;;;;;;3.00;1.48;;;;;;;;;;7374376;19;20006;-73
2023/05/10 09:52:06;;;;;;;2.15;1.30;;;;;;;;;;7373588;19;20030;-73
2023/05/10 09:54:32;;;;;;;1.88;1.20;;;;;;;;;;7371983;19;20015;-73
2023/05/10 09:56:57;;;;;;;6.18;2.83;;;;;;;;;;7372720;19;20367;-73
2023/05/10 09:59:26;;;;;;;4.32;2.58;;;;;;;;;;7374745;19;20026;-73
2023/05/10 10:01:52;;;;;;;1.25;1.10;;;;;;;;;;7393733;19;20010;-74
2023/05/10 10:04:20;;;;;;;3.22;1.20;;;;;;;;;;7373657;19;20540;-73
2023/05/10 10:06:45;;;;;;;0.73;0.73;;;;;;;;;;7372274;19;20546;-73
2023/05/10 10:09:10;;;;;;;2.15;1.08;;;;;;;;;;7374000;19;20029;-74
2023/05/10 10:11:37;;;;;;;1.13;1.02;;;;;;;;;;7373614;19;20006;-74
2023/05/10 10:14:03;;;;;;;2.42;0.90;;;;;;;;;;7397737;19;19994;-74
2023/05/10 10:16:29;;;;;;;3.97;1.10;;;;;;;;;;7399964;19;20006;-73
2023/05/10 10:18:55;;;;;;;1.70;0.90;;;;;;;;;;7382704;19;20107;-73
2023/05/10 10:21:22;;;;;;;2.30;0.70;;;;;;;;;;7375454;19;20107;-73
2023/05/10 10:23:47;;;;;;;2.15;0.90;;;;;;;;;;7373893;19;20409;-73
2023/05/10 10:26:14;;;;;;;0.90;0.90;;;;;;;;;;7395507;19;19994;-74
2023/05/10 10:28:48;;;;;;;0.80;0.70;;;;;;;;;;7373324;19;20415;-73
2023/05/10 10:31:25;;;;;;;1.27;0.90;;;;;;;;;;7372651;19;20108;-73
2023/05/10 10:33:59;;;;;;;2.58;0.90;;;;;;;;;;7372129;19;20014;-73
2023/05/10 10:36:26;;;;;;;1.95;0.80;;;;;;;;;;7372033;19;20006;-73
2023/05/10 10:38:53;;;;;;;4.57;1.02;;;;;;;;;;7372026;19;20023;-73
2023/05/10 10:41:31;;;;;;;1.08;0.95;;;;;;;;;;7373645;19;20010;-73
2023/05/10 10:44:29;;;;;;;1.50;1.00;;;;;;;;;;7396071;19;20022;-73
2023/05/10 10:47:22;;;;;;;1.52;1.00;;;;;;;;;;7372239;19;20007;-73
2023/05/10 10:50:08;;;;;;;1.92;1.10;;;;;;;;;;7373147;19;20098;-73
2023/05/10 10:52:38;;;;;;;4.22;1.17;;;;;;;;;;7372950;19;20006;-74
2023/05/10 10:55:13;;;;;;;2.80;1.30;;;;;;;;;;7370783;19;20016;-74
2023/05/10 10:57:41;;;;;;;4.25;1.67;;;;;;;;;;7374035;19;20017;-74
2023/05/10 11:00:20;;;;;;;1.98;1.10;;;;;;;;;;7372677;19;20003;-76
2023/05/10 11:03:07;;;;;;;2.25;1.10;;;;;;;;;;7373698;19;20434;-75
2023/05/10 11:05:37;;;;;;;4.72;1.42;;;;;;;;;;7371711;19;20122;-75
2023/05/10 11:08:10;;;;;;;;;;;;;;;;;;7392706;19;20007;-74
2023/05/10 11:10:36;;;;;;;1.05;0.98;;;;;;;;;;7372559;19;19921;-73
2023/05/10 11:13:05;;;;;;;5.07;2.30;;;;;;;;;;7367839;19;20093;-73
2023/05/10 11:15:34;;;;;;;2.10;1.20;;;;;;;;;;7372740;19;20006;-74
2023/05/10 11:17:59;;;;;;;1.00;0.90;;;;;;;;;;7370700;19;20049;-74
2023/05/10 11:20:33;;;;;;;0.95;0.95;;;;;;;;;;7372397;19;20359;-72
2023/05/10 11:23:12;;;;;;;1.90;0.93;;;;;;;;;;7393035;19;20002;-73
2023/05/10 11:25:44;;;;;;;1.35;0.90;;;;;;;;;;7372304;19;20476;-74
2023/05/10 11:28:11;;;;;;;2.13;0.90;;;;;;;;;;7373731;19;20017;-73
2023/05/10 11:30:38;;;;;;;2.65;1.05;;;;;;;;;;7372452;19;20006;-73
2023/05/10 11:33:05;;;;;;;2.22;0.70;;;;;;;;;;7372271;19;20010;-73
2023/05/10 11:35:30;;;;;;;0.90;0.82;;;;;;;;;;7380141;19;20006;-74
2023/05/10 11:37:55;;;;;;;1.23;0.93;;;;;;;;;;7396706;19;20007;-74
2023/05/10 11:40:24;;;;;;;1.38;0.85;;;;;;;;;;7369896;19;20380;-73
2023/05/10 11:42:50;;;;;;;2.30;1.02;;;;;;;;;;7371016;19;20002;-75
2023/05/10 11:45:15;;;;;;;2.40;0.95;;;;;;;;;;7370973;19;20081;-74
2023/05/10 11:47:43;;;;;;;0.90;0.90;;;;;;;;;;7369677;19;20006;-75
2023/05/10 11:50:09;;;;;;;0.90;0.90;;;;;;;;;;7398352;19;20011;-76
2023/05/10 11:52:37;;;;;;;1.60;1.05;;;;;;;;;;7387963;19;20013;-75
2023/05/10 11:55:03;;;;;;;0.80;0.80;;;;;;;;;;7385047;19;20003;-76
2023/05/10 11:57:28;;;;;;;0.88;0.88;;;;;;;;;;7373955;19;20012;-73
2023/05/10 11:59:55;;;;;;;1.10;1.00;;;;;;;;;;7370580;19;20445;-73
2023/05/10 12:02:20;;;;;;;3.13;1.17;;;;;;;;;;7374043;19;20007;-69
2023/05/10 12:04:46;;;;;;;3.92;0.85;;;;;;;;;;7395033;19;20340;-68
2023/05/10 12:07:11;;;;;;;1.25;0.90;;;;;;;;;;7368441;19;20013;-69
2023/05/10 12:09:37;;;;;;;1.65;1.10;;;;;;;;;;7370295;19;20630;-68
2023/05/10 12:12:02;;;;;;;1.02;0.80;;;;;;;;;;7371730;19;20006;-67
2023/05/10 12:14:28;;;;;;;6.55;1.30;;;;;;;;;;7370322;19;20562;-69
2023/05/10 12:16:57;;;;;;;3.53;1.00;;;;;;;;;;7389134;19;20033;-68
2023/05/10 12:19:22;;;;;;;4.57;1.10;;;;;;;;;;7371283;19;20008;-57
2023/05/10 12:21:48;;;;;;;0.88;0.88;;;;;;;;;;7368891;19;20572;-57
2023/05/10 12:24:14;;;;;;;2.70;1.10;;;;;;;;;;7368561;19;20006;-60
2023/05/10 12:26:39;;;;;;;2.92;1.20;;;;;;;;;;7368825;19;19998;-62
2023/05/10 12:29:15;;;;;;;2.20;1.15;;;;;;;;;;7391855;19;20003;-61
2023/05/10 12:31:58;;;;;;;2.15;1.00;;;;;;;;;;7369486;19;20002;-60
2023/05/10 12:34:26;;;;;;;1.45;1.23;;;;;;;;;;7369810;19;20376;-58
2023/05/10 12:36:55;;;;;;;1.08;0.88;;;;;;;;;;7368229;19;20058;-61
2023/05/10 12:39:20;;;;;;;1.20;1.10;;;;;;;;;;7368407;19;20027;-61
2023/05/10 12:41:46;;;;;;;1.20;1.00;;;;;;;;;;7367736;19;20441;-57
2023/05/10 12:44:11;;;;;;;2.42;1.00;;;;;;;;;;7389076;19;20023;-61
2023/05/10 12:46:37;;;;;;;1.50;0.82;;;;;;;;;;7368593;19;20010;-59
2023/05/10 12:49:02;;;;;;;2.20;1.45;;;;;;;;;;7368742;19;20003;-60
2023/05/10 12:51:27;;;;;;;5.43;1.83;;;;;;;;;;7369596;19;20002;-61
2023/05/10 12:53:52;;;;;;;2.08;1.17;;;;;;;;;;7371065;19;20073;-56
2023/05/10 12:56:18;;;;;;;1.90;1.08;;;;;;;;;;7375597;19;20013;-61
2023/05/10 12:58:47;;;;;;;2.15;1.02;;;;;;;;;;7393901;19;20378;-74
2023/05/10 13:01:13;;;;;;;3.53;1.17;;;;;;;;;;7369653;19;20031;-74
2023/05/10 13:03:38;;;;;;;3.58;1.20;;;;;;;;;;7370306;19;20006;-74
2023/05/10 13:06:04;;;;;;;2.15;1.10;;;;;;;;;;7366645;19;20005;-74
2023/05/10 13:08:33;;;;;;;2.13;1.10;;;;;;;;;;7364801;19;20009;-74
2023/05/10 13:10:58;;;;;;;6.82;1.50;;;;;;;;;;7387971;19;20002;-74
2023/05/10 13:13:24;;;;;;;2.22;1.00;;;;;;;;;;7364438;19;20070;-74
2023/05/10 13:15:49;;;;;;;2.35;1.08;;;;;;;;;;7366296;19;20014;-74
2023/05/10 13:18:14;;;;;;;4.20;1.20;;;;;;;;;;7364938;19;20076;-74
2023/05/10 13:20:40;;;;;;;4.70;1.40;;;;;;;;;;7368929;19;20035;-74
2023/05/10 13:23:05;;;;;;;2.50;1.08;;;;;;;;;;7391312;19;20119;-74
2023/05/10 13:25:31;;;;;;;3.85;1.25;;;;;;;;;;7368700;19;20941;-74
2023/05/10 13:27:56;;;;;;;1.20;1.00;;;;;;;;;;7367159;19;20363;-74
2023/05/10 13:30:22;;;;;;;2.15;1.02;;;;;;;;;;7368907;19;20048;-74
2023/05/10 13:32:47;;;;;;;2.13;1.10;;;;;;;;;;7367288;19;20010;-74
2023/05/10 13:35:12;;;;;;;1.67;1.15;;;;;;;;;;7391307;19;20480;-74
2023/05/10 13:37:37;;;;;;;1.95;1.13;;;;;;;;;;7373731;19;20009;-74
2023/05/10 13:40:04;;;;;;;1.65;1.13;;;;;;;;;;7373118;19;20018;-74
2023/05/10 13:42:29;;;;;;;2.97;1.15;;;;;;;;;;7375743;19;20010;-74
2023/05/10 13:44:55;;;;;;;3.90;1.33;;;;;;;;;;7375972;19;20042;-75
2023/05/10 13:47:21;;;;;;;4.05;1.10;;;;;;;;;;7373619;19;20023;-74
2023/05/10 13:49:47;;;;;;;3.80;1.10;;;;;;;;;;7395906;19;20006;-73
2023/05/10 13:52:13;;;;;;;4.40;1.33;;;;;;;;;;7374237;19;20022;-74
2023/05/10 13:54:39;;;;;;;1.88;1.02;;;;;;;;;;7374325;19;20010;-73
2023/05/10 13:57:04;;;;;;;3.55;1.27;;;;;;;;;;7373548;19;20011;-73
2023/05/10 13:59:31;;;;;;;3.65;1.20;;;;;;;;;;7375179;19;20007;-73
2023/05/10 14:01:57;;;;;;;3.08;1.20;;;;;;;;;;7395419;19;20010;-73
2023/05/10 14:04:22;;;;;;;1.73;1.00;;;;;;;;;;7381055;19;20073;-73
2023/05/10 14:06:48;;;;;;;1.27;1.17;;;;;;;;;;7397636;19;20007;-73
2023/05/10 14:09:13;;;;;;;5.00;1.25;;;;;;;;;;7409508;19;19991;-73
2023/05/10 14:11:42;;;;;;;1.67;1.10;;;;;;;;;;7389430;19;20056;-73
2023/05/10 14:14:08;;;;;;;2.85;1.23;;;;;;;;;;7397413;19;20013;-73
2023/05/10 14:16:33;;;;;;;1.33;1.05;;;;;;;;;;7375673;19;20003;-74
2023/05/10 14:18:58;;;;;;;3.17;1.30;;;;;;;;;;7376440;19;20014;-73
2023/05/10 14:21:24;;;;;;;1.73;1.17;;;;;;;;;;7374322;19;20064;-74
2023/05/10 14:23:49;;;;;;;3.58;1.20;;;;;;;;;;7376234;19;20018;-73
2023/05/10 14:26:15;;;;;;;4.47;1.30;;;;;;;;;;7379970;19;20030;-73
2023/05/10 14:28:40;;;;;;;3.38;1.08;;;;;;;;;;7395649;19;20089;-74
2023/05/10 14:31:06;;;;;;;3.90;1.38;;;;;;;;;;7373198;19;20010;-73
2023/05/10 14:33:31;;;;;;;2.17;1.30;;;;;;;;;;7369622;19;20014;-73
2023/05/10 14:35:57;;;;;;;2.85;1.20;;;;;;;;;;7374039;19;20105;-74
2023/05/10 14:38:22;;;;;;;3.85;1.52;;;;;;;;;;7373613;19;20006;-73
2023/05/10 14:40:47;;;;;;;4.97;1.40;;;;;;;;;;7399344;19;20032;-73
2023/05/10 14:43:13;;;;;;;1.25;1.17;;;;;;;;;;7384009;19;20007;-73